Time;durP1;ratioP1;P1;durP2;ratioP2;P2;SDS_P1;SDS_P2;PMS_P1;PMS_P2;Temp;Humidity;BMP_temperature;BMP_pressure;BME280_temperature;BME280_humidity;BME280_pressure;Samples;Min_cycle;Max_cycle;Signal;HPM_P1;HPM_P2
2023/04/01 00:01:36;;;;;;;0.10;0.10;;;;;;;;;;5014591;28;20274;-66
2023/04/01 00:04:02;;;;;;;0.10;0.10;;;;;;;;;;5024700;28;20244;-66
2023/04/01 00:06:30;;;;;;;0.10;0.10;;;;;;;;;;5014399;28;20308;-66
2023/04/01 00:08:56;;;;;;;0.10;0.10;;;;;;;;;;5025045;28;20435;-66
2023/04/01 00:11:23;;;;;;;0.10;0.10;;;;;;;;;;5014457;28;20493;-66
2023/04/01 00:13:49;;;;;;;0.10;0.10;;;;;;;;;;5024624;28;20236;-66
2023/04/01 00:16:16;;;;;;;0.10;0.10;;;;;;;;;;5015227;28;20243;-66
2023/04/01 00:18:42;;;;;;;0.10;0.10;;;;;;;;;;5025143;28;20233;-66
2023/04/01 00:21:09;;;;;;;0.10;0.10;;;;;;;;;;5015063;28;20256;-66
2023/04/01 00:23:37;;;;;;;0.10;0.10;;;;;;;;;;5025336;28;20232;-66
2023/04/01 00:26:03;;;;;;;0.10;0.10;;;;;;;;;;5014549;28;20296;-66
2023/04/01 00:28:30;;;;;;;0.10;0.10;;;;;;;;;;5024189;28;20211;-66
2023/04/01 00:30:56;;;;;;;0.10;0.10;;;;;;;;;;5014392;28;20243;-66
2023/04/01 00:33:22;;;;;;;0.10;0.10;;;;;;;;;;5024088;28;20424;-67
2023/04/01 00:35:49;;;;;;;0.10;0.10;;;;;;;;;;5014215;28;20303;-66
2023/04/01 00:38:16;;;;;;;0.10;0.10;;;;;;;;;;5023785;28;20209;-66
2023/04/01 00:40:45;;;;;;;0.10;0.10;;;;;;;;;;5014530;28;20256;-66
2023/04/01 00:43:12;;;;;;;0.10;0.10;;;;;;;;;;5023598;28;20220;-66
2023/04/01 00:45:40;;;;;;;0.10;0.10;;;;;;;;;;5014527;28;20292;-67
2023/04/01 00:48:08;;;;;;;0.10;0.10;;;;;;;;;;5024310;28;20443;-66
2023/04/01 00:50:35;;;;;;;0.10;0.10;;;;;;;;;;5014873;28;20244;-66
2023/04/01 00:53:01;;;;;;;0.10;0.10;;;;;;;;;;5023215;28;20215;-67
2023/04/01 00:55:28;;;;;;;0.10;0.10;;;;;;;;;;5014294;28;20252;-66
2023/04/01 00:57:57;;;;;;;0.10;0.10;;;;;;;;;;5023643;28;20272;-66
2023/04/01 01:00:26;;;;;;;0.10;0.10;;;;;;;;;;5014243;28;20212;-67
2023/04/01 01:02:52;;;;;;;0.10;0.10;;;;;;;;;;5023371;28;20193;-68
2023/04/01 01:05:21;;;;;;;0.17;0.17;;;;;;;;;;5013935;28;20205;-66
2023/04/01 01:07:53;;;;;;;0.10;0.10;;;;;;;;;;5023113;28;20268;-66
2023/04/01 01:10:24;;;;;;;0.10;0.10;;;;;;;;;;5014230;28;20234;-66
2023/04/01 01:12:54;;;;;;;0.10;0.10;;;;;;;;;;5022877;28;20282;-66
2023/04/01 01:15:25;;;;;;;0.10;0.10;;;;;;;;;;5014142;28;20420;-66
2023/04/01 01:17:57;;;;;;;0.10;0.10;;;;;;;;;;5023212;28;20234;-66
2023/04/01 01:20:46;;;;;;;0.10;0.10;;;;;;;;;;5013715;28;20269;-66
2023/04/01 01:23:24;;;;;;;0.10;0.10;;;;;;;;;;5023091;28;20235;-66
2023/04/01 01:25:58;;;;;;;0.13;0.13;;;;;;;;;;5013685;28;20590;-66
2023/04/01 01:28:30;;;;;;;0.10;0.10;;;;;;;;;;5023417;28;20245;-66
2023/04/01 01:31:02;;;;;;;0.10;0.10;;;;;;;;;;5013334;28;20243;-66
2023/04/01 01:33:36;;;;;;;0.13;0.13;;;;;;;;;;5023222;28;20378;-66
2023/04/01 01:36:05;;;;;;;0.10;0.10;;;;;;;;;;5013441;28;20260;-66
2023/04/01 01:38:33;;;;;;;0.10;0.10;;;;;;;;;;5023377;28;20426;-66
2023/04/01 01:41:00;;;;;;;0.10;0.10;;;;;;;;;;5013772;28;20269;-66
2023/04/01 01:43:28;;;;;;;0.10;0.10;;;;;;;;;;5023702;28;20269;-66
2023/04/01 01:45:56;;;;;;;0.10;0.10;;;;;;;;;;5013660;28;20241;-66
2023/04/01 01:48:22;;;;;;;0.10;0.10;;;;;;;;;;5023403;28;20312;-68
2023/04/01 01:50:49;;;;;;;0.10;0.10;;;;;;;;;;5013876;28;20488;-66
2023/04/01 01:53:17;;;;;;;0.10;0.10;;;;;;;;;;5022732;28;20238;-66
2023/04/01 01:55:45;;;;;;;0.10;0.10;;;;;;;;;;5014296;28;20278;-66
2023/04/01 01:58:14;;;;;;;0.10;0.10;;;;;;;;;;5023672;28;20216;-66
2023/04/01 02:00:42;;;;;;;0.10;0.10;;;;;;;;;;5013967;28;20440;-66
2023/04/01 02:03:09;;;;;;;0.10;0.10;;;;;;;;;;5023647;28;20205;-66
2023/04/01 02:05:36;;;;;;;0.10;0.10;;;;;;;;;;5017041;28;20311;-66
2023/04/01 02:08:06;;;;;;;0.10;0.10;;;;;;;;;;5027317;28;20335;-66
2023/04/01 02:10:36;;;;;;;0.10;0.10;;;;;;;;;;5017741;28;20298;-66
2023/04/01 02:13:05;;;;;;;0.10;0.10;;;;;;;;;;5027202;28;20513;-66
2023/04/01 02:15:33;;;;;;;0.10;0.10;;;;;;;;;;5017903;28;20247;-66
2023/04/01 02:17:59;;;;;;;0.10;0.10;;;;;;;;;;5027065;28;20200;-66
2023/04/01 02:20:28;;;;;;;0.10;0.10;;;;;;;;;;5017073;28;20274;-66
2023/04/01 02:22:55;;;;;;;0.10;0.10;;;;;;;;;;5026092;28;20223;-66
2023/04/01 02:25:24;;;;;;;0.20;0.20;;;;;;;;;;5017029;28;20454;-66
2023/04/01 02:27:52;;;;;;;0.10;0.10;;;;;;;;;;5026217;28;20261;-66
2023/04/01 02:30:19;;;;;;;0.10;0.10;;;;;;;;;;5016725;28;20239;-66
2023/04/01 02:32:46;;;;;;;0.10;0.10;;;;;;;;;;5025682;28;20226;-66
2023/04/01 02:35:13;;;;;;;0.10;0.10;;;;;;;;;;5016957;28;20242;-66
2023/04/01 02:37:42;;;;;;;0.10;0.10;;;;;;;;;;5026253;28;20443;-66
2023/04/01 02:40:09;;;;;;;0.10;0.10;;;;;;;;;;5017208;28;20207;-66
2023/04/01 02:42:36;;;;;;;0.10;0.10;;;;;;;;;;5026610;28;20396;-66
2023/04/01 02:45:04;;;;;;;0.17;0.17;;;;;;;;;;5027958;28;20247;-66
2023/04/01 02:47:30;;;;;;;0.10;0.10;;;;;;;;;;5016467;28;20590;-66
2023/04/01 02:49:58;;;;;;;0.10;0.10;;;;;;;;;;5027383;28;20273;-66
2023/04/01 02:52:25;;;;;;;0.10;0.10;;;;;;;;;;5015492;28;20244;-66
2023/04/01 02:54:51;;;;;;;0.10;0.10;;;;;;;;;;5026814;28;20208;-66
2023/04/01 02:57:17;;;;;;;0.10;0.10;;;;;;;;;;5015354;28;20300;-66
2023/04/01 02:59:44;;;;;;;0.10;0.10;;;;;;;;;;5026566;28;20522;-66
2023/04/01 03:02:12;;;;;;;0.13;0.13;;;;;;;;;;5015344;28;20243;-66
2023/04/01 03:04:39;;;;;;;2.17;0.20;;;;;;;;;;5026744;28;20235;-66
2023/04/01 03:07:05;;;;;;;0.10;0.10;;;;;;;;;;5015229;28;20313;-66
2023/04/01 03:09:31;;;;;;;0.10;0.10;;;;;;;;;;5026661;28;20237;-66
2023/04/01 03:11:58;;;;;;;0.10;0.10;;;;;;;;;;5015150;28;20258;-66
2023/04/01 03:14:24;;;;;;;0.10;0.10;;;;;;;;;;5026241;28;20237;-66
2023/04/01 03:16:51;;;;;;;0.10;0.10;;;;;;;;;;5014471;28;20492;-67
2023/04/01 03:19:19;;;;;;;0.10;0.10;;;;;;;;;;5026223;28;20448;-66
2023/04/01 03:21:45;;;;;;;0.10;0.10;;;;;;;;;;5015197;28;20241;-66
2023/04/01 03:24:11;;;;;;;0.10;0.10;;;;;;;;;;5026063;28;20446;-66
2023/04/01 03:26:38;;;;;;;0.10;0.10;;;;;;;;;;5015094;28;20241;-66
2023/04/01 03:29:05;;;;;;;0.10;0.10;;;;;;;;;;5025930;28;20208;-66
2023/04/01 03:31:32;;;;;;;0.10;0.10;;;;;;;;;;5015177;28;20241;-66
2023/04/01 03:33:58;;;;;;;0.10;0.10;;;;;;;;;;5025673;28;20296;-66
2023/04/01 03:36:26;;;;;;;0.10;0.10;;;;;;;;;;5015219;28;20316;-66
2023/04/01 03:38:52;;;;;;;0.10;0.10;;;;;;;;;;5025567;28;20242;-66
2023/04/01 03:41:19;;;;;;;0.10;0.10;;;;;;;;;;5015905;28;20312;-66
2023/04/01 03:43:45;;;;;;;0.10;0.10;;;;;;;;;;5025773;28;20209;-66
2023/04/01 03:46:12;;;;;;;0.10;0.10;;;;;;;;;;5015679;28;20264;-66
2023/04/01 03:48:38;;;;;;;0.20;0.20;;;;;;;;;;5025978;28;20209;-66
2023/04/01 03:51:07;;;;;;;0.10;0.10;;;;;;;;;;5015719;28;20245;-66
2023/04/01 03:53:35;;;;;;;0.10;0.10;;;;;;;;;;5025641;28;20468;-66
2023/04/01 03:56:04;;;;;;;0.10;0.10;;;;;;;;;;5015508;28;20262;-66
2023/04/01 03:58:30;;;;;;;0.10;0.10;;;;;;;;;;5025250;28;20272;-66
2023/04/01 04:00:56;;;;;;;0.10;0.10;;;;;;;;;;5015679;28;20252;-66
2023/04/01 04:03:23;;;;;;;0.10;0.10;;;;;;;;;;5024329;28;20430;-66
2023/04/01 04:05:50;;;;;;;0.10;0.10;;;;;;;;;;5015279;28;20285;-67
2023/04/01 04:08:16;;;;;;;0.10;0.10;;;;;;;;;;5024688;28;20214;-66
2023/04/01 04:10:44;;;;;;;0.10;0.10;;;;;;;;;;5015116;28;20593;-67
2023/04/01 04:13:10;;;;;;;0.10;0.10;;;;;;;;;;5024686;28;20240;-66
2023/04/01 04:15:37;;;;;;;0.10;0.10;;;;;;;;;;5015330;28;20306;-66
2023/04/01 04:18:03;;;;;;;0.10;0.10;;;;;;;;;;5024313;28;20287;-66
2023/04/01 04:20:30;;;;;;;0.10;0.10;;;;;;;;;;5015529;28;20277;-66
2023/04/01 04:22:56;;;;;;;0.10;0.10;;;;;;;;;;5024345;28;20205;-66
2023/04/01 04:25:22;;;;;;;0.10;0.10;;;;;;;;;;5015276;28;20205;-66
2023/04/01 04:27:50;;;;;;;0.10;0.10;;;;;;;;;;5024085;28;20219;-66
2023/04/01 04:30:17;;;;;;;0.10;0.10;;;;;;;;;;5014827;28;20208;-66
2023/04/01 04:32:43;;;;;;;0.10;0.10;;;;;;;;;;5024021;28;20260;-66
2023/04/01 04:35:09;;;;;;;0.10;0.10;;;;;;;;;;5014759;28;20253;-66
2023/04/01 04:37:36;;;;;;;0.10;0.10;;;;;;;;;;5023367;28;20269;-66
2023/04/01 04:40:02;;;;;;;0.10;0.10;;;;;;;;;;5024966;28;20418;-66
2023/04/01 04:42:28;;;;;;;0.10;0.10;;;;;;;;;;5013442;28;20250;-66
2023/04/01 04:44:56;;;;;;;0.10;0.10;;;;;;;;;;5024820;28;20209;-66
2023/04/01 04:47:22;;;;;;;0.10;0.10;;;;;;;;;;5013342;28;20304;-66
2023/04/01 04:49:49;;;;;;;0.10;0.10;;;;;;;;;;5024655;28;20535;-66
2023/04/01 04:52:15;;;;;;;0.10;0.10;;;;;;;;;;5013764;28;20241;-66
2023/04/01 04:54:42;;;;;;;0.20;0.20;;;;;;;;;;5024651;28;20299;-66
2023/04/01 04:57:08;;;;;;;0.10;0.10;;;;;;;;;;5013131;28;20260;-67
2023/04/01 04:59:34;;;;;;;0.10;0.10;;;;;;;;;;5024292;28;20224;-66
2023/04/01 05:02:02;;;;;;;0.10;0.10;;;;;;;;;;5013214;28;20449;-66
2023/04/01 05:04:28;;;;;;;0.10;0.10;;;;;;;;;;5024266;28;20236;-66
2023/04/01 05:06:55;;;;;;;0.10;0.10;;;;;;;;;;5013067;28;20257;-66
2023/04/01 05:09:21;;;;;;;0.10;0.10;;;;;;;;;;5025052;28;20232;-66
2023/04/01 05:11:47;;;;;;;0.10;0.10;;;;;;;;;;5013978;28;20491;-66
2023/04/01 05:14:14;;;;;;;0.10;0.10;;;;;;;;;;5024735;28;20229;-66
2023/04/01 05:16:41;;;;;;;0.20;0.20;;;;;;;;;;5014046;28;20306;-66
2023/04/01 05:19:09;;;;;;;0.10;0.10;;;;;;;;;;5024092;28;20437;-66
2023/04/01 05:21:35;;;;;;;0.10;0.10;;;;;;;;;;5013430;28;20264;-66
2023/04/01 05:24:01;;;;;;;0.10;0.10;;;;;;;;;;5024068;28;20238;-66
2023/04/01 05:26:28;;;;;;;0.10;0.10;;;;;;;;;;5013542;28;20271;-66
2023/04/01 05:28:54;;;;;;;0.10;0.10;;;;;;;;;;5024113;28;20290;-68
2023/04/01 05:31:20;;;;;;;0.10;0.10;;;;;;;;;;5013222;28;20260;-66
2023/04/01 05:33:47;;;;;;;0.17;0.17;;;;;;;;;;5023629;28;20259;-66
2023/04/01 05:36:16;;;;;;;0.10;0.10;;;;;;;;;;5013487;28;20264;-66
2023/04/01 05:38:43;;;;;;;0.10;0.10;;;;;;;;;;5024313;28;20240;-66
2023/04/01 05:41:10;;;;;;;0.10;0.10;;;;;;;;;;5019883;28;20480;-66
2023/04/01 05:43:36;;;;;;;0.10;0.10;;;;;;;;;;5029774;28;20275;-66
2023/04/01 05:46:02;;;;;;;0.10;0.10;;;;;;;;;;5019711;28;20262;-67
2023/04/01 05:48:29;;;;;;;0.10;0.10;;;;;;;;;;5030331;28;20449;-66
2023/04/01 05:50:55;;;;;;;0.10;0.10;;;;;;;;;;5019866;28;20269;-66
2023/04/01 05:53:23;;;;;;;0.10;0.10;;;;;;;;;;5029567;28;20212;-66
2023/04/01 05:55:49;;;;;;;0.10;0.10;;;;;;;;;;5019680;28;20266;-66
2023/04/01 05:58:16;;;;;;;0.10;0.10;;;;;;;;;;5029452;28;20451;-66
2023/04/01 06:00:42;;;;;;;0.10;0.10;;;;;;;;;;5019738;28;20263;-66
2023/04/01 06:03:08;;;;;;;0.10;0.10;;;;;;;;;;5029225;28;20272;-66
2023/04/01 06:05:39;;;;;;;0.10;0.10;;;;;;;;;;5019849;28;20260;-66
2023/04/01 06:08:10;;;;;;;0.10;0.10;;;;;;;;;;5029178;28;20256;-66
2023/04/01 06:10:41;;;;;;;0.10;0.10;;;;;;;;;;5020109;28;20251;-66
2023/04/01 06:13:10;;;;;;;0.10;0.10;;;;;;;;;;5029216;28;20233;-66
2023/04/01 06:15:39;;;;;;;0.10;0.10;;;;;;;;;;5019615;28;20312;-67
2023/04/01 06:18:26;;;;;;;0.10;0.10;;;;;;;;;;5029048;28;20206;-66
2023/04/01 06:20:56;;;;;;;0.10;0.10;;;;;;;;;;4994315;28;20612;-66
2023/04/01 06:23:33;;;;;;;0.10;0.10;;;;;;;;;;5029284;28;20544;-66
2023/04/01 06:26:07;;;;;;;0.10;0.10;;;;;;;;;;5019492;28;20303;-66
2023/04/01 06:28:55;;;;;;;0.10;0.10;;;;;;;;;;5029430;28;20278;-66
2023/04/01 06:31:26;;;;;;;0.10;0.10;;;;;;;;;;5019191;28;20541;-66
2023/04/01 06:33:59;;;;;;;0.10;0.10;;;;;;;;;;5029484;28;20229;-66
2023/04/01 06:36:41;;;;;;;0.10;0.10;;;;;;;;;;5019147;28;20312;-66
2023/04/01 06:39:16;;;;;;;0.10;0.10;;;;;;;;;;5016848;28;20205;-66
2023/04/01 06:41:57;;;;;;;0.73;0.73;;;;;;;;;;5018857;28;20250;-66
2023/04/01 06:44:27;;;;;;;0.10;0.10;;;;;;;;;;5029925;28;20392;-67
2023/04/01 06:46:56;;;;;;;0.10;0.10;;;;;;;;;;5019147;28;20316;-66
2023/04/01 06:49:30;;;;;;;0.10;0.10;;;;;;;;;;5030664;28;20205;-67
2023/04/01 06:52:00;;;;;;;0.10;0.10;;;;;;;;;;5015376;28;20275;-66
2023/04/01 06:54:30;;;;;;;0.10;0.10;;;;;;;;;;5027353;28;20236;-71
2023/04/01 06:57:00;;;;;;;0.10;0.10;;;;;;;;;;5015896;28;20323;-67
2023/04/01 06:59:29;;;;;;;0.10;0.10;;;;;;;;;;5026536;28;20201;-67
2023/04/01 07:01:56;;;;;;;0.10;0.10;;;;;;;;;;5015965;28;20260;-67
2023/04/01 07:04:25;;;;;;;0.10;0.10;;;;;;;;;;5026445;28;20202;-67
2023/04/01 07:06:53;;;;;;;0.10;0.10;;;;;;;;;;5015359;28;20263;-67
2023/04/01 07:09:21;;;;;;;0.10;0.10;;;;;;;;;;5026298;28;20215;-67
2023/04/01 07:11:48;;;;;;;0.10;0.10;;;;;;;;;;5015304;28;20254;-66
2023/04/01 07:14:18;;;;;;;0.10;0.10;;;;;;;;;;5025789;28;20235;-66
2023/04/01 07:16:46;;;;;;;0.10;0.10;;;;;;;;;;5015400;28;20257;-66
2023/04/01 07:19:16;;;;;;;0.10;0.10;;;;;;;;;;5026205;28;20244;-66
2023/04/01 07:21:45;;;;;;;0.10;0.10;;;;;;;;;;5015294;28;20247;-67
2023/04/01 07:24:15;;;;;;;0.10;0.10;;;;;;;;;;5025916;28;20244;-66
2023/04/01 07:26:42;;;;;;;0.20;0.20;;;;;;;;;;5015190;28;20249;-66
2023/04/01 07:29:11;;;;;;;0.10;0.10;;;;;;;;;;5025898;28;20280;-66
2023/04/01 07:31:52;;;;;;;0.10;0.10;;;;;;;;;;5015748;28;20451;-65
2023/04/01 07:34:20;;;;;;;0.10;0.10;;;;;;;;;;5026574;28;20236;-67
2023/04/01 07:36:49;;;;;;;0.10;0.10;;;;;;;;;;5015564;28;20339;-67
2023/04/01 07:39:24;;;;;;;0.10;0.10;;;;;;;;;;5026302;28;20209;-66
2023/04/01 07:41:52;;;;;;;0.10;0.10;;;;;;;;;;5014920;28;20241;-66
2023/04/01 07:44:23;;;;;;;0.10;0.10;;;;;;;;;;5026029;28;20445;-66
2023/04/01 07:46:57;;;;;;;0.10;0.10;;;;;;;;;;5014918;28;20241;-66
2023/04/01 07:49:27;;;;;;;0.10;0.10;;;;;;;;;;5026062;28;20301;-66
2023/04/01 07:51:58;;;;;;;0.10;0.10;;;;;;;;;;5014983;28;20245;-67
2023/04/01 07:54:30;;;;;;;0.10;0.10;;;;;;;;;;5025999;28;20407;-66
2023/04/01 07:56:58;;;;;;;0.10;0.10;;;;;;;;;;5014850;28;20268;-66
2023/04/01 07:59:28;;;;;;;0.10;0.10;;;;;;;;;;5025253;28;20244;-66
2023/04/01 08:02:00;;;;;;;0.10;0.10;;;;;;;;;;5014388;28;20265;-66
2023/04/01 08:04:31;;;;;;;0.10;0.10;;;;;;;;;;5025333;28;20212;-66
2023/04/01 08:07:01;;;;;;;0.10;0.10;;;;;;;;;;5014365;28;20295;-67
2023/04/01 08:09:33;;;;;;;0.43;0.20;;;;;;;;;;5025378;28;20277;-65
2023/04/01 08:12:04;;;;;;;0.10;0.10;;;;;;;;;;5014047;28;20312;-66
2023/04/01 08:14:35;;;;;;;0.10;0.10;;;;;;;;;;5025695;28;20480;-65
2023/04/01 08:17:04;;;;;;;0.10;0.10;;;;;;;;;;5014555;28;20241;-67
2023/04/01 08:19:32;;;;;;;0.10;0.10;;;;;;;;;;5025876;28;20386;-67
2023/04/01 08:22:04;;;;;;;0.33;0.33;;;;;;;;;;5014522;28;20255;-67
2023/04/01 08:24:35;;;;;;;0.10;0.10;;;;;;;;;;5025689;28;20544;-67
2023/04/01 08:27:02;;;;;;;0.10;0.10;;;;;;;;;;5014182;28;20304;-67
2023/04/01 08:29:35;;;;;;;0.10;0.10;;;;;;;;;;5024635;28;20209;-67
2023/04/01 08:32:06;;;;;;;0.10;0.10;;;;;;;;;;5013782;28;20257;-67
2023/04/01 08:34:34;;;;;;;0.10;0.10;;;;;;;;;;5024979;28;20317;-67
2023/04/01 08:37:03;;;;;;;0.10;0.10;;;;;;;;;;5013810;28;20501;-67
2023/04/01 08:39:31;;;;;;;0.10;0.10;;;;;;;;;;5025074;28;20206;-67
2023/04/01 08:42:05;;;;;;;0.10;0.10;;;;;;;;;;5013942;28;20321;-67
2023/04/01 08:44:39;;;;;;;0.10;0.10;;;;;;;;;;5024845;28;20209;-67
2023/04/01 08:47:14;;;;;;;0.10;0.10;;;;;;;;;;5013278;28;20248;-67
2023/04/01 08:49:55;;;;;;;0.10;0.10;;;;;;;;;;5024801;28;20241;-67
2023/04/01 08:52:43;;;;;;;0.10;0.10;;;;;;;;;;5013405;28;20592;-67
2023/04/01 08:55:22;;;;;;;0.10;0.10;;;;;;;;;;5009190;28;20479;-67
2023/04/01 08:57:54;;;;;;;0.10;0.10;;;;;;;;;;5023996;28;20463;-67
2023/04/01 09:00:26;;;;;;;0.10;0.10;;;;;;;;;;5014646;28;20284;-67
2023/04/01 09:03:16;;;;;;;0.10;0.10;;;;;;;;;;5023813;28;20245;-67
2023/04/01 09:05:48;;;;;;;0.10;0.10;;;;;;;;;;5015012;28;20479;-67
2023/04/01 09:08:30;;;;;;;0.10;0.10;;;;;;;;;;5023657;28;20385;-67
2023/04/01 09:11:00;;;;;;;0.10;0.10;;;;;;;;;;5011526;28;20329;-68
2023/04/01 09:13:41;;;;;;;0.10;0.10;;;;;;;;;;5023192;28;20244;-67
2023/04/01 09:16:19;;;;;;;0.10;0.10;;;;;;;;;;4981010;28;20303;-67
2023/04/01 09:19:06;;;;;;;0.10;0.10;;;;;;;;;;5023919;28;20205;-67
2023/04/01 09:21:41;;;;;;;0.10;0.10;;;;;;;;;;5008470;28;20255;-68
2023/04/01 09:24:22;;;;;;;0.10;0.10;;;;;;;;;;5024181;28;20458;-69
2023/04/01 09:27:02;;;;;;;0.10;0.10;;;;;;;;;;5011425;28;20268;-70
2023/04/01 09:29:38;;;;;;;0.10;0.10;;;;;;;;;;5024873;28;20493;-69
2023/04/01 09:32:19;;;;;;;0.10;0.10;;;;;;;;;;5013326;28;20313;-69
2023/04/01 09:34:55;;;;;;;0.10;0.10;;;;;;;;;;5024503;28;20229;-69
2023/04/01 09:37:27;;;;;;;0.10;0.10;;;;;;;;;;5012773;28;20298;-69
2023/04/01 09:40:03;;;;;;;0.10;0.10;;;;;;;;;;5024493;28;20283;-69
2023/04/01 09:42:44;;;;;;;0.10;0.10;;;;;;;;;;5012835;28;20256;-68
2023/04/01 09:45:19;;;;;;;0.10;0.10;;;;;;;;;;5017679;28;20202;-69
2023/04/01 09:47:50;;;;;;;0.10;0.10;;;;;;;;;;5023588;28;20256;-69
2023/04/01 09:50:30;;;;;;;0.10;0.10;;;;;;;;;;5013606;28;20265;-68
2023/04/01 09:53:05;;;;;;;0.10;0.10;;;;;;;;;;5022651;28;20274;-68
2023/04/01 09:55:49;;;;;;;0.10;0.10;;;;;;;;;;5013678;28;20242;-68
2023/04/01 09:58:33;;;;;;;0.10;0.10;;;;;;;;;;4993736;28;20549;-68
2023/04/01 10:01:17;;;;;;;0.10;0.10;;;;;;;;;;5013217;28;20310;-68
2023/04/01 10:03:55;;;;;;;0.10;0.10;;;;;;;;;;5022818;28;20233;-68
2023/04/01 10:06:40;;;;;;;0.10;0.10;;;;;;;;;;5013396;28;20304;-69
2023/04/01 10:09:21;;;;;;;0.10;0.10;;;;;;;;;;5023365;28;20206;-68
2023/04/01 10:12:07;;;;;;;0.10;0.10;;;;;;;;;;5012831;28;20257;-68
2023/04/01 10:14:42;;;;;;;0.10;0.10;;;;;;;;;;5024104;28;20246;-68
2023/04/01 10:17:30;;;;;;;0.23;0.23;;;;;;;;;;5012378;28;20305;-68
2023/04/01 10:20:00;;;;;;;0.10;0.10;;;;;;;;;;5023953;28;20210;-68
2023/04/01 10:22:37;;;;;;;0.10;0.10;;;;;;;;;;5012371;28;20354;-68
2023/04/01 10:25:17;;;;;;;0.10;0.10;;;;;;;;;;5023793;28;20209;-68
2023/04/01 10:28:01;;;;;;;0.10;0.10;;;;;;;;;;5021472;28;20535;-68
2023/04/01 10:30:39;;;;;;;0.10;0.10;;;;;;;;;;5017224;28;20579;-67
2023/04/01 10:33:18;;;;;;;0.10;0.10;;;;;;;;;;5027249;28;20362;-66
2023/04/01 10:36:03;;;;;;;0.10;0.10;;;;;;;;;;5016844;28;20464;-68
2023/04/01 10:38:44;;;;;;;0.10;0.10;;;;;;;;;;5026370;28;20250;-68
2023/04/01 10:41:29;;;;;;;0.77;0.63;;;;;;;;;;5016565;28;20455;-68
2023/04/01 10:47:15;;;;;;;0.10;0.10;;;;;;;;;;5076705;27;20643;-66
2023/04/01 10:50:00;;;;;;;0.10;0.10;;;;;;;;;;5061265;28;20204;-66
2023/04/01 10:52:41;;;;;;;0.10;0.10;;;;;;;;;;5066161;28;20469;-66
2023/04/01 10:55:19;;;;;;;0.10;0.10;;;;;;;;;;5061175;28;20228;-66
2023/04/01 10:57:59;;;;;;;0.10;0.10;;;;;;;;;;5060796;28;20220;-66
2023/04/01 11:00:33;;;;;;;0.10;0.10;;;;;;;;;;5052818;28;20244;-65
2023/04/01 11:03:14;;;;;;;0.10;0.10;;;;;;;;;;5073254;28;20265;-65
2023/04/01 11:06:11;;;;;;;0.10;0.10;;;;;;;;;;5055149;28;20248;-66
2023/04/01 11:08:59;;;;;;;0.10;0.10;;;;;;;;;;4999742;28;20194;-66
2023/04/01 11:11:40;;;;;;;0.10;0.10;;;;;;;;;;5055313;28;20252;-66
2023/04/01 11:14:26;;;;;;;0.10;0.10;;;;;;;;;;5063984;28;20225;-66
2023/04/01 11:17:19;;;;;;;0.10;0.10;;;;;;;;;;5063983;28;20311;-65
2023/04/01 11:20:08;;;;;;;0.10;0.10;;;;;;;;;;5060511;28;20212;-66
2023/04/01 11:22:44;;;;;;;0.10;0.10;;;;;;;;;;5049236;28;20237;-67
2023/04/01 11:25:18;;;;;;;0.10;0.10;;;;;;;;;;5050643;28;20293;-66
2023/04/01 11:28:08;;;;;;;0.10;0.10;;;;;;;;;;5074214;28;20194;-66
2023/04/01 11:30:55;;;;;;;0.10;0.10;;;;;;;;;;5043329;28;20308;-66
2023/04/01 11:33:23;;;;;;;0.10;0.10;;;;;;;;;;5069676;28;20204;-66
2023/04/01 11:36:15;;;;;;;0.10;0.10;;;;;;;;;;5055745;28;20297;-66
2023/04/01 11:38:57;;;;;;;0.10;0.10;;;;;;;;;;5067185;28;20199;-66
2023/04/01 11:41:28;;;;;;;0.10;0.10;;;;;;;;;;5061314;28;20256;-73
2023/04/01 11:44:02;;;;;;;0.10;0.10;;;;;;;;;;5064710;28;20266;-72
2023/04/01 11:46:32;;;;;;;0.10;0.10;;;;;;;;;;5060104;28;20241;-72
2023/04/01 11:49:03;;;;;;;0.10;0.10;;;;;;;;;;5064288;28;20390;-73
2023/04/01 11:51:47;;;;;;;0.10;0.10;;;;;;;;;;5060417;28;20309;-72
2023/04/01 11:54:22;;;;;;;0.10;0.10;;;;;;;;;;5049743;28;20208;-72
2023/04/01 11:56:54;;;;;;;0.10;0.10;;;;;;;;;;5056858;28;20571;-72
2023/04/01 11:59:40;;;;;;;0.10;0.10;;;;;;;;;;5048070;28;20196;-73
2023/04/01 12:02:09;;;;;;;0.10;0.10;;;;;;;;;;5051517;28;20248;-72
2023/04/01 12:04:54;;;;;;;0.10;0.10;;;;;;;;;;5046544;28;20283;-73
2023/04/01 12:07:23;;;;;;;0.10;0.10;;;;;;;;;;5050686;28;20250;-73
2023/04/01 12:09:57;;;;;;;0.10;0.10;;;;;;;;;;5046260;28;20204;-73
2023/04/01 12:12:26;;;;;;;0.10;0.10;;;;;;;;;;5051441;28;20326;-72
2023/04/01 12:14:58;;;;;;;0.10;0.10;;;;;;;;;;5046262;28;20237;-72
2023/04/01 12:17:29;;;;;;;0.10;0.10;;;;;;;;;;5051404;28;20244;-72
2023/04/01 12:19:59;;;;;;;0.10;0.10;;;;;;;;;;5046373;28;20242;-71
2023/04/01 12:22:43;;;;;;;0.10;0.10;;;;;;;;;;5051391;28;20456;-73
2023/04/01 12:25:19;;;;;;;0.10;0.10;;;;;;;;;;5036192;28;20387;-72
2023/04/01 12:27:50;;;;;;;0.10;0.10;;;;;;;;;;5059762;28;20262;-72
2023/04/01 12:30:29;;;;;;;0.10;0.10;;;;;;;;;;5036906;28;20239;-73
2023/04/01 12:33:01;;;;;;;0.10;0.10;;;;;;;;;;5058345;28;20554;-74
2023/04/01 12:35:31;;;;;;;0.10;0.10;;;;;;;;;;5038631;28;20246;-73
2023/04/01 12:38:05;;;;;;;0.10;0.10;;;;;;;;;;5058282;28;20509;-72
2023/04/01 12:40:37;;;;;;;0.10;0.10;;;;;;;;;;5038906;28;20330;-73
2023/04/01 12:43:16;;;;;;;0.10;0.10;;;;;;;;;;5057352;28;20225;-74
2023/04/01 12:45:46;;;;;;;0.10;0.10;;;;;;;;;;5039698;28;20271;-73
2023/04/01 12:48:28;;;;;;;0.10;0.10;;;;;;;;;;5055770;28;20233;-73
2023/04/01 12:51:06;;;;;;;0.27;0.27;;;;;;;;;;5041335;28;20240;-74
2023/04/01 12:53:47;;;;;;;0.10;0.10;;;;;;;;;;5053176;28;20205;-73
2023/04/01 12:56:18;;;;;;;0.10;0.10;;;;;;;;;;5042123;28;20250;-73
2023/04/01 12:58:59;;;;;;;0.10;0.10;;;;;;;;;;5051793;28;20197;-73
2023/04/01 13:01:31;;;;;;;0.10;0.10;;;;;;;;;;5045199;28;20239;-73
2023/04/01 13:04:06;;;;;;;0.10;0.10;;;;;;;;;;5050160;28;20194;-73
2023/04/01 13:06:41;;;;;;;0.10;0.10;;;;;;;;;;5046179;28;20247;-74
2023/04/01 13:09:16;;;;;;;0.10;0.10;;;;;;;;;;5047249;28;20192;-74
2023/04/01 13:11:49;;;;;;;0.10;0.10;;;;;;;;;;5047120;28;20235;-74
2023/04/01 13:14:21;;;;;;;0.10;0.10;;;;;;;;;;5047298;28;20198;-73
2023/04/01 13:16:50;;;;;;;0.10;0.10;;;;;;;;;;5047615;28;20243;-72
2023/04/01 13:19:20;;;;;;;0.10;0.10;;;;;;;;;;5046950;28;20204;-73
2023/04/01 13:21:52;;;;;;;0.10;0.10;;;;;;;;;;5047518;28;20266;-71
2023/04/01 13:24:25;;;;;;;0.10;0.10;;;;;;;;;;5046461;28;20213;-71
2023/04/01 13:26:57;;;;;;;0.10;0.10;;;;;;;;;;5047999;28;20259;-72
2023/04/01 13:29:26;;;;;;;0.10;0.10;;;;;;;;;;5046010;28;20193;-72
2023/04/01 13:31:59;;;;;;;0.10;0.10;;;;;;;;;;5048094;28;20531;-72
2023/04/01 13:34:33;;;;;;;0.10;0.10;;;;;;;;;;5045769;28;20373;-72
2023/04/01 13:37:06;;;;;;;0.10;0.10;;;;;;;;;;5048749;28;20307;-72
2023/04/01 13:39:41;;;;;;;0.10;0.10;;;;;;;;;;5044517;28;20195;-72
2023/04/01 13:42:15;;;;;;;0.10;0.10;;;;;;;;;;5049810;28;20452;-71
2023/04/01 13:44:44;;;;;;;0.10;0.10;;;;;;;;;;5044474;28;20219;-70
2023/04/01 13:47:30;;;;;;;0.10;0.10;;;;;;;;;;5049497;28;20233;-71
2023/04/01 13:50:10;;;;;;;0.10;0.10;;;;;;;;;;5044303;28;20547;-70
2023/04/01 13:52:48;;;;;;;0.10;0.10;;;;;;;;;;5052933;28;20216;-71
2023/04/01 13:55:23;;;;;;;0.10;0.10;;;;;;;;;;5055038;28;20216;-71
2023/04/01 13:58:01;;;;;;;0.10;0.10;;;;;;;;;;5077376;28;20223;-71
2023/04/01 14:00:32;;;;;;;0.10;0.10;;;;;;;;;;5056486;28;20557;-72
2023/04/01 14:03:12;;;;;;;0.10;0.10;;;;;;;;;;5076512;28;20192;-71
2023/04/01 14:05:49;;;;;;;0.10;0.10;;;;;;;;;;5057716;28;20284;-71
2023/04/01 14:08:21;;;;;;;0.10;0.10;;;;;;;;;;5073980;28;20204;-71
2023/04/01 14:10:52;;;;;;;0.10;0.10;;;;;;;;;;5058674;28;20503;-72
2023/04/01 14:13:24;;;;;;;0.10;0.10;;;;;;;;;;5073333;28;20198;-72
2023/04/01 14:15:56;;;;;;;0.10;0.10;;;;;;;;;;5059124;28;20236;-72
2023/04/01 14:18:28;;;;;;;0.10;0.10;;;;;;;;;;5072943;28;20194;-73
2023/04/01 14:21:03;;;;;;;0.10;0.10;;;;;;;;;;5059452;28;20339;-72
2023/04/01 14:23:41;;;;;;;0.13;0.13;;;;;;;;;;5072202;28;20226;-72
2023/04/01 14:26:37;;;;;;;0.10;0.10;;;;;;;;;;5061357;28;20236;-72
2023/04/01 14:29:13;;;;;;;0.10;0.10;;;;;;;;;;5002565;28;20196;-72
2023/04/01 14:31:44;;;;;;;0.10;0.10;;;;;;;;;;5054156;28;20245;-72
2023/04/01 14:34:19;;;;;;;0.10;0.10;;;;;;;;;;5066810;28;20493;-73
2023/04/01 14:36:54;;;;;;;0.00;0.00;;;;;;;;;;5066130;28;20243;-72
2023/04/01 14:39:29;;;;;;;0.10;0.10;;;;;;;;;;5065153;28;20194;-72
2023/04/01 14:42:01;;;;;;;0.10;0.10;;;;;;;;;;5067308;28;20244;-72
2023/04/01 14:44:50;;;;;;;0.10;0.10;;;;;;;;;;5064257;28;20201;-72
2023/04/01 14:47:23;;;;;;;0.10;0.10;;;;;;;;;;5068788;28;20497;-73
2023/04/01 14:49:50;;;;;;;0.10;0.10;;;;;;;;;;5063549;28;20206;-73
2023/04/01 14:52:22;;;;;;;0.10;0.10;;;;;;;;;;5068803;28;20250;-72
2023/04/01 14:54:50;;;;;;;0.10;0.10;;;;;;;;;;5063704;28;20211;-72
2023/04/01 14:57:23;;;;;;;0.10;0.10;;;;;;;;;;5068611;28;20236;-71
2023/04/01 14:59:52;;;;;;;0.10;0.10;;;;;;;;;;5063678;28;20566;-72
2023/04/01 15:02:29;;;;;;;0.10;0.10;;;;;;;;;;5068687;28;20574;-71
2023/04/01 15:04:59;;;;;;;0.10;0.10;;;;;;;;;;5063430;28;20205;-71
2023/04/01 15:07:56;;;;;;;0.10;0.10;;;;;;;;;;5068510;28;20236;-71
2023/04/01 15:10:29;;;;;;;0.10;0.10;;;;;;;;;;5011452;28;20490;-72
2023/04/01 15:13:01;;;;;;;0.10;0.10;;;;;;;;;;5064318;28;20239;-71
2023/04/01 15:15:36;;;;;;;0.10;0.10;;;;;;;;;;5055469;28;20259;-71